BEL4AR EBBR-LIEE
Flight info
| Callsign | BEL4AR |
|---|---|
| Flight time | 2h 11m |
| Altitude | 35000 |
| Route | SOPOK Z283 RITAX M624 DIK N852 GTQ A242 LASAT DCT DEVDI DCT RIPUS N850 ODINA DCT EVANO DCT DORAV DCT UNITA DCT BAKRO DCT IBROS DCT OLBEK DCT ALG DCT KOVAS |
| Aircraft | A320/M-SDE3FGHIRWY/LB1 |
Departure
| Time | 2026-05-06 18:52 |
|---|---|
| Airport | Brussels Airport (EBBR) |
Arrival
| Time | 2026-05-06 21:03 |
|---|---|
| Airport | Cagliari Elmas Airport (LIEE) |
| Time | Latitude | Longitude | Altitude | Speed | Heading |
|---|---|---|---|---|---|
| 2026-05-06 18:13 | 50.90223 | 4.48411 | 118 ft | 0 kts | 335° |
| 2026-05-06 18:39 | 50.90205 | 4.48424 | 117 ft | 4 kts | 339° |
| 2026-05-06 18:39 | 50.90181 | 4.48436 | 118 ft | 4 kts | 349° |
| 2026-05-06 18:40 | 50.90143 | 4.48425 | 121 ft | 1 kts | 65° |
| 2026-05-06 18:45 | 50.90149 | 4.48445 | 120 ft | 5 kts | 65° |
| 2026-05-06 18:45 | 50.90165 | 4.48502 | 123 ft | 8 kts | 65° |
| 2026-05-06 18:45 | 50.90190 | 4.48587 | 123 ft | 11 kts | 65° |
| 2026-05-06 18:46 | 50.90226 | 4.48711 | 123 ft | 13 kts | 65° |
| 2026-05-06 18:46 | 50.90266 | 4.48849 | 123 ft | 14 kts | 65° |
| 2026-05-06 18:46 | 50.90309 | 4.48999 | 120 ft | 16 kts | 65° |
| 2026-05-06 18:46 | 50.90356 | 4.49162 | 123 ft | 17 kts | 66° |
| 2026-05-06 18:47 | 50.90406 | 4.49335 | 123 ft | 18 kts | 65° |
| 2026-05-06 18:47 | 50.90455 | 4.49509 | 122 ft | 14 kts | 74° |
| 2026-05-06 18:47 | 50.90432 | 4.49595 | 124 ft | 8 kts | 134° |
| 2026-05-06 18:47 | 50.90397 | 4.49628 | 122 ft | 0 kts | 163° |
| 2026-05-06 18:48 | 50.90342 | 4.49574 | 125 ft | 18 kts | 217° |
| 2026-05-06 18:48 | 50.90241 | 4.49506 | 127 ft | 14 kts | 195° |
| 2026-05-06 18:48 | 50.90152 | 4.49469 | 129 ft | 12 kts | 194° |
| 2026-05-06 18:48 | 50.90070 | 4.49435 | 129 ft | 14 kts | 194° |
| 2026-05-06 18:49 | 50.89922 | 4.49378 | 135 ft | 28 kts | 194° |
| 2026-05-06 18:49 | 50.89744 | 4.49303 | 146 ft | 25 kts | 194° |
| 2026-05-06 18:49 | 50.89599 | 4.49220 | 155 ft | 19 kts | 208° |
| 2026-05-06 18:49 | 50.89496 | 4.49160 | 160 ft | 13 kts | 193° |
| 2026-05-06 18:50 | 50.89424 | 4.49133 | 163 ft | 10 kts | 193° |
| 2026-05-06 18:50 | 50.89350 | 4.49104 | 166 ft | 9 kts | 194° |
| 2026-05-06 18:50 | 50.89289 | 4.49078 | 168 ft | 10 kts | 195° |
| 2026-05-06 18:50 | 50.89215 | 4.49045 | 174 ft | 10 kts | 195° |
| 2026-05-06 18:51 | 50.89151 | 4.49029 | 176 ft | 6 kts | 174° |
| 2026-05-06 18:51 | 50.89143 | 4.49071 | 176 ft | 5 kts | 84° |
| 2026-05-06 18:51 | 50.89199 | 4.49317 | 176 ft | 55 kts | 70° |
| 2026-05-06 18:51 | 50.89408 | 4.50215 | 176 ft | 118 kts | 69° |
| 2026-05-06 18:52 | 50.89762 | 4.51689 | 196 ft | 165 kts | 65° |
| 2026-05-06 18:52 | 50.90167 | 4.53343 | 871 ft | 156 kts | 64° |
| 2026-05-06 18:52 | 50.90639 | 4.54913 | 1522 ft | 160 kts | 63° |
| 2026-05-06 18:52 | 50.91144 | 4.56503 | 2146 ft | 162 kts | 62° |
| 2026-05-06 18:53 | 50.91667 | 4.58115 | 2659 ft | 166 kts | 61° |
| 2026-05-06 18:53 | 50.92204 | 4.59732 | 3230 ft | 166 kts | 60° |
| 2026-05-06 18:53 | 50.92764 | 4.61408 | 3564 ft | 182 kts | 60° |
| 2026-05-06 18:53 | 50.93394 | 4.63297 | 3774 ft | 205 kts | 60° |
| 2026-05-06 18:54 | 50.93965 | 4.65482 | 4048 ft | 226 kts | 69° |
| 2026-05-06 18:54 | 50.94465 | 4.67940 | 4513 ft | 238 kts | 71° |
| 2026-05-06 18:54 | 50.94950 | 4.70478 | 5158 ft | 246 kts | 71° |
| 2026-05-06 18:54 | 50.95404 | 4.73212 | 5595 ft | 265 kts | 81° |
| 2026-05-06 18:55 | 50.95210 | 4.76124 | 6300 ft | 276 kts | 109° |
| 2026-05-06 18:55 | 50.94139 | 4.78672 | 7033 ft | 284 kts | 137° |
| 2026-05-06 18:55 | 50.92571 | 4.80618 | 7794 ft | 288 kts | 142° |
| 2026-05-06 18:55 | 50.90966 | 4.82543 | 8589 ft | 290 kts | 142° |
| 2026-05-06 18:56 | 50.89347 | 4.84483 | 9383 ft | 293 kts | 142° |
| 2026-05-06 18:56 | 50.87705 | 4.86449 | 10088 ft | 299 kts | 142° |
| 2026-05-06 18:56 | 50.85993 | 4.88501 | 10351 ft | 320 kts | 142° |
| 2026-05-06 18:56 | 50.84154 | 4.90710 | 10496 ft | 343 kts | 142° |
| 2026-05-06 18:57 | 50.82190 | 4.93070 | 10623 ft | 365 kts | 142° |
| 2026-05-06 18:57 | 50.80119 | 4.95556 | 10919 ft | 379 kts | 142° |
| 2026-05-06 18:57 | 50.78003 | 4.98096 | 11498 ft | 384 kts | 142° |
| 2026-05-06 18:57 | 50.75865 | 5.00660 | 12112 ft | 388 kts | 142° |
| 2026-05-06 18:58 | 50.73703 | 5.03252 | 12725 ft | 392 kts | 142° |
| 2026-05-06 18:58 | 50.71551 | 5.05834 | 13304 ft | 396 kts | 142° |
| 2026-05-06 18:58 | 50.69343 | 5.08477 | 13885 ft | 400 kts | 143° |
| 2026-05-06 18:58 | 50.67118 | 5.11130 | 14425 ft | 403 kts | 143° |
| 2026-05-06 18:59 | 50.64872 | 5.13803 | 14985 ft | 406 kts | 143° |
| 2026-05-06 18:59 | 50.62611 | 5.16488 | 15551 ft | 408 kts | 143° |
| 2026-05-06 18:59 | 50.60334 | 5.19188 | 16124 ft | 411 kts | 143° |
| 2026-05-06 18:59 | 50.58039 | 5.21907 | 16667 ft | 414 kts | 144° |
| 2026-05-06 19:00 | 50.55724 | 5.24649 | 17208 ft | 417 kts | 144° |
| 2026-05-06 19:00 | 50.53401 | 5.27397 | 17742 ft | 419 kts | 144° |
| 2026-05-06 19:00 | 50.51058 | 5.30168 | 18256 ft | 422 kts | 144° |
| 2026-05-06 19:00 | 50.48728 | 5.32915 | 18680 ft | 425 kts | 144° |
| 2026-05-06 19:01 | 50.46358 | 5.35707 | 19140 ft | 427 kts | 144° |
| 2026-05-06 19:01 | 50.43980 | 5.38510 | 19587 ft | 428 kts | 144° |
| 2026-05-06 19:01 | 50.41592 | 5.41321 | 20018 ft | 430 kts | 144° |
| 2026-05-06 19:01 | 50.39184 | 5.44147 | 20438 ft | 433 kts | 144° |
| 2026-05-06 19:02 | 50.36766 | 5.46979 | 20837 ft | 435 kts | 144° |
| 2026-05-06 19:02 | 50.34334 | 5.49827 | 21219 ft | 437 kts | 144° |
| 2026-05-06 19:02 | 50.31891 | 5.52682 | 21629 ft | 438 kts | 143° |
| 2026-05-06 19:02 | 50.29471 | 5.55507 | 22035 ft | 439 kts | 144° |
| 2026-05-06 19:03 | 50.27019 | 5.58371 | 22390 ft | 441 kts | 144° |
| 2026-05-06 19:03 | 50.24546 | 5.61254 | 22712 ft | 444 kts | 144° |
| 2026-05-06 19:03 | 50.22060 | 5.64144 | 23052 ft | 447 kts | 144° |
| 2026-05-06 19:03 | 50.19562 | 5.67044 | 23391 ft | 449 kts | 144° |
| 2026-05-06 19:04 | 50.17054 | 5.69958 | 23677 ft | 451 kts | 144° |
| 2026-05-06 19:04 | 50.14537 | 5.72881 | 23973 ft | 452 kts | 144° |
| 2026-05-06 19:04 | 50.12007 | 5.75807 | 24252 ft | 453 kts | 144° |
| 2026-05-06 19:04 | 50.09473 | 5.78734 | 24535 ft | 454 kts | 144° |
| 2026-05-06 19:05 | 50.07012 | 5.81842 | 24814 ft | 456 kts | 138° |
| 2026-05-06 19:05 | 50.04725 | 5.85279 | 25074 ft | 458 kts | 137° |
| 2026-05-06 19:05 | 50.02432 | 5.88722 | 25327 ft | 459 kts | 137° |
| 2026-05-06 19:05 | 50.00126 | 5.92167 | 25566 ft | 460 kts | 137° |
| 2026-05-06 19:06 | 49.97811 | 5.95616 | 25812 ft | 461 kts | 137° |
| 2026-05-06 19:06 | 49.95498 | 5.99065 | 26065 ft | 461 kts | 137° |
| 2026-05-06 19:06 | 49.93179 | 6.02523 | 26299 ft | 462 kts | 137° |
| 2026-05-06 19:06 | 49.90883 | 6.05939 | 26513 ft | 463 kts | 137° |
| 2026-05-06 19:07 | 49.88546 | 6.09391 | 26781 ft | 462 kts | 139° |
| 2026-05-06 19:07 | 49.86031 | 6.12466 | 27088 ft | 459 kts | 148° |
| 2026-05-06 19:07 | 49.83269 | 6.14911 | 27398 ft | 456 kts | 156° |
| 2026-05-06 19:07 | 49.80369 | 6.16881 | 27698 ft | 455 kts | 158° |
| 2026-05-06 19:08 | 49.77475 | 6.18832 | 28043 ft | 452 kts | 157° |
| 2026-05-06 19:08 | 49.74597 | 6.20785 | 28397 ft | 450 kts | 157° |
| 2026-05-06 19:08 | 49.71735 | 6.22732 | 28730 ft | 449 kts | 157° |
| 2026-05-06 19:08 | 49.68875 | 6.24675 | 29052 ft | 447 kts | 157° |
| 2026-05-06 19:09 | 49.66030 | 6.26606 | 29370 ft | 446 kts | 157° |
| 2026-05-06 19:09 | 49.63191 | 6.28527 | 29694 ft | 445 kts | 157° |
| 2026-05-06 19:09 | 49.60348 | 6.30411 | 30009 ft | 443 kts | 158° |
| 2026-05-06 19:09 | 49.57514 | 6.32246 | 30298 ft | 441 kts | 158° |
| 2026-05-06 19:10 | 49.54672 | 6.34059 | 30546 ft | 441 kts | 158° |
| 2026-05-06 19:10 | 49.51874 | 6.35834 | 30764 ft | 442 kts | 158° |
| 2026-05-06 19:10 | 49.49033 | 6.37642 | 30991 ft | 442 kts | 158° |
| 2026-05-06 19:10 | 49.46197 | 6.39462 | 31226 ft | 441 kts | 157° |
| 2026-05-06 19:11 | 49.43391 | 6.41365 | 31474 ft | 441 kts | 156° |
| 2026-05-06 19:11 | 49.40605 | 6.43367 | 31711 ft | 441 kts | 155° |
| 2026-05-06 19:11 | 49.37838 | 6.45415 | 31967 ft | 441 kts | 155° |
| 2026-05-06 19:11 | 49.35074 | 6.47463 | 32208 ft | 440 kts | 155° |
| 2026-05-06 19:12 | 49.32287 | 6.49433 | 32446 ft | 440 kts | 156° |
| 2026-05-06 19:12 | 49.29489 | 6.51327 | 32695 ft | 440 kts | 157° |
| 2026-05-06 19:12 | 49.26678 | 6.53178 | 32920 ft | 439 kts | 158° |
| 2026-05-06 19:12 | 49.23861 | 6.55009 | 33168 ft | 439 kts | 158° |
| 2026-05-06 19:13 | 49.21052 | 6.56833 | 33413 ft | 438 kts | 158° |
| 2026-05-06 19:13 | 49.18279 | 6.58645 | 33647 ft | 438 kts | 158° |
| 2026-05-06 19:13 | 49.15482 | 6.60486 | 33902 ft | 437 kts | 158° |
| 2026-05-06 19:13 | 49.12684 | 6.62333 | 34109 ft | 437 kts | 158° |
| 2026-05-06 19:14 | 49.09892 | 6.64180 | 34270 ft | 438 kts | 158° |
| 2026-05-06 19:14 | 49.07091 | 6.66037 | 34448 ft | 438 kts | 158° |
| 2026-05-06 19:14 | 49.04294 | 6.67889 | 34627 ft | 438 kts | 158° |
| 2026-05-06 19:14 | 49.01478 | 6.69663 | 34800 ft | 437 kts | 162° |
| 2026-05-06 19:15 | 48.98549 | 6.70891 | 34870 ft | 438 kts | 171° |
| 2026-05-06 19:15 | 48.92469 | 6.71400 | 34883 ft | 439 kts | 182° |
| 2026-05-06 19:16 | 48.86349 | 6.71143 | 34886 ft | 440 kts | 182° |
| 2026-05-06 19:16 | 48.80216 | 6.70885 | 34887 ft | 441 kts | 182° |
| 2026-05-06 19:17 | 48.74126 | 6.70661 | 34889 ft | 441 kts | 182° |
| 2026-05-06 19:17 | 48.67998 | 6.70423 | 34893 ft | 440 kts | 182° |
| 2026-05-06 19:18 | 48.61866 | 6.70183 | 34899 ft | 441 kts | 182° |
| 2026-05-06 19:18 | 48.55732 | 6.69942 | 34900 ft | 441 kts | 182° |
| 2026-05-06 19:19 | 48.49594 | 6.69700 | 34903 ft | 441 kts | 182° |
| 2026-05-06 19:19 | 48.43449 | 6.69467 | 34908 ft | 441 kts | 182° |
| 2026-05-06 19:20 | 48.37307 | 6.69240 | 34912 ft | 441 kts | 182° |
| 2026-05-06 19:20 | 48.31214 | 6.69013 | 34917 ft | 441 kts | 182° |
| 2026-05-06 19:21 | 48.25078 | 6.68781 | 34920 ft | 441 kts | 182° |
| 2026-05-06 19:21 | 48.18992 | 6.69842 | 34920 ft | 444 kts | 163° |
| 2026-05-06 19:21 | 48.16152 | 6.71678 | 34919 ft | 447 kts | 152° |
| 2026-05-06 19:22 | 48.13597 | 6.74352 | 34912 ft | 449 kts | 140° |
| 2026-05-06 19:22 | 48.11429 | 6.77745 | 34907 ft | 453 kts | 129° |
| 2026-05-06 19:22 | 48.09577 | 6.81568 | 34912 ft | 454 kts | 128° |
| 2026-05-06 19:23 | 48.06516 | 6.87951 | 34897 ft | 454 kts | 128° |
| 2026-05-06 19:23 | 48.02215 | 6.96862 | 34897 ft | 455 kts | 128° |
| 2026-05-06 19:24 | 47.99093 | 7.03287 | 34895 ft | 455 kts | 129° |
| 2026-05-06 19:24 | 47.95387 | 7.10901 | 34894 ft | 456 kts | 129° |
| 2026-05-06 19:25 | 47.91659 | 7.18564 | 34896 ft | 456 kts | 129° |
| 2026-05-06 19:25 | 47.87918 | 7.26235 | 34893 ft | 456 kts | 129° |
| 2026-05-06 19:26 | 47.84198 | 7.33829 | 34908 ft | 456 kts | 129° |
| 2026-05-06 19:26 | 47.80458 | 7.41467 | 34923 ft | 457 kts | 129° |
| 2026-05-06 19:27 | 47.76702 | 7.49086 | 34933 ft | 456 kts | 129° |
| 2026-05-06 19:27 | 47.72940 | 7.56682 | 34924 ft | 457 kts | 130° |
| 2026-05-06 19:28 | 47.69176 | 7.64292 | 34916 ft | 457 kts | 130° |
| 2026-05-06 19:28 | 47.65411 | 7.71896 | 34922 ft | 457 kts | 130° |
| 2026-05-06 19:29 | 47.61626 | 7.79499 | 34928 ft | 457 kts | 130° |
| 2026-05-06 19:29 | 47.57864 | 7.87025 | 34933 ft | 457 kts | 130° |
| 2026-05-06 19:30 | 47.54078 | 7.94588 | 34935 ft | 457 kts | 130° |
| 2026-05-06 19:30 | 47.50288 | 8.02143 | 34939 ft | 457 kts | 131° |
| 2026-05-06 19:31 | 47.46487 | 8.09695 | 34943 ft | 457 kts | 131° |
| 2026-05-06 19:31 | 47.40774 | 8.21014 | 34939 ft | 458 kts | 131° |
| 2026-05-06 19:32 | 47.36986 | 8.28506 | 34942 ft | 458 kts | 131° |
| 2026-05-06 19:32 | 47.33163 | 8.36023 | 34923 ft | 458 kts | 132° |
| 2026-05-06 19:33 | 47.29223 | 8.43385 | 34931 ft | 452 kts | 140° |
| 2026-05-06 19:33 | 47.24253 | 8.48658 | 34938 ft | 438 kts | 160° |
| 2026-05-06 19:34 | 47.18508 | 8.51102 | 34937 ft | 426 kts | 178° |
| 2026-05-06 19:34 | 47.12612 | 8.51937 | 34928 ft | 426 kts | 178° |
| 2026-05-06 19:35 | 47.06699 | 8.52801 | 34916 ft | 426 kts | 178° |
| 2026-05-06 19:35 | 47.00799 | 8.53661 | 34927 ft | 425 kts | 178° |
| 2026-05-06 19:36 | 46.94905 | 8.54509 | 34940 ft | 425 kts | 178° |
| 2026-05-06 19:36 | 46.89023 | 8.55360 | 34940 ft | 425 kts | 178° |
| 2026-05-06 19:37 | 46.83180 | 8.56205 | 34940 ft | 424 kts | 178° |
| 2026-05-06 19:37 | 46.77314 | 8.57055 | 34932 ft | 423 kts | 179° |
| 2026-05-06 19:38 | 46.71467 | 8.57889 | 34953 ft | 421 kts | 179° |
| 2026-05-06 19:38 | 46.65631 | 8.58709 | 34953 ft | 420 kts | 179° |
| 2026-05-06 19:39 | 46.59846 | 8.59534 | 34942 ft | 419 kts | 179° |
| 2026-05-06 19:39 | 46.54045 | 8.60364 | 34948 ft | 418 kts | 179° |
| 2026-05-06 19:40 | 46.48251 | 8.61180 | 34945 ft | 418 kts | 179° |
| 2026-05-06 19:40 | 46.42462 | 8.62004 | 34941 ft | 417 kts | 179° |
| 2026-05-06 19:41 | 46.36675 | 8.62819 | 34933 ft | 417 kts | 179° |
| 2026-05-06 19:41 | 46.30882 | 8.63627 | 34929 ft | 417 kts | 179° |
| 2026-05-06 19:42 | 46.25148 | 8.64431 | 34923 ft | 417 kts | 179° |
| 2026-05-06 19:42 | 46.19370 | 8.65254 | 34909 ft | 417 kts | 179° |
| 2026-05-06 19:43 | 46.13594 | 8.66065 | 34910 ft | 417 kts | 179° |
| 2026-05-06 19:43 | 46.07824 | 8.66854 | 34906 ft | 416 kts | 179° |
| 2026-05-06 19:44 | 46.02039 | 8.67587 | 34902 ft | 417 kts | 180° |
| 2026-05-06 19:44 | 45.96250 | 8.68299 | 34904 ft | 417 kts | 180° |
| 2026-05-06 19:45 | 45.90462 | 8.69019 | 34902 ft | 417 kts | 180° |
| 2026-05-06 19:45 | 45.84705 | 8.69738 | 34892 ft | 417 kts | 180° |
| 2026-05-06 19:46 | 45.78975 | 8.71366 | 34884 ft | 426 kts | 168° |
| 2026-05-06 19:46 | 45.73334 | 8.74021 | 34884 ft | 426 kts | 168° |
| 2026-05-06 19:47 | 45.67700 | 8.76693 | 34923 ft | 426 kts | 168° |
| 2026-05-06 19:47 | 45.62070 | 8.79356 | 34914 ft | 426 kts | 168° |
| 2026-05-06 19:48 | 45.56430 | 8.82000 | 34924 ft | 426 kts | 168° |
| 2026-05-06 19:48 | 45.50834 | 8.84619 | 34887 ft | 426 kts | 168° |
| 2026-05-06 19:49 | 45.45199 | 8.87254 | 34880 ft | 426 kts | 168° |
| 2026-05-06 19:49 | 45.39566 | 8.89890 | 34885 ft | 426 kts | 168° |
| 2026-05-06 19:50 | 45.33915 | 8.92521 | 34883 ft | 426 kts | 168° |
| 2026-05-06 19:50 | 45.28285 | 8.95133 | 34877 ft | 425 kts | 168° |
| 2026-05-06 19:51 | 45.22661 | 8.97741 | 34859 ft | 425 kts | 168° |
| 2026-05-06 19:51 | 45.17036 | 9.00331 | 34853 ft | 425 kts | 168° |
| 2026-05-06 19:52 | 45.11435 | 9.02915 | 34863 ft | 426 kts | 168° |
| 2026-05-06 19:52 | 45.05797 | 9.05516 | 34873 ft | 427 kts | 168° |
| 2026-05-06 19:53 | 45.00151 | 9.08126 | 34863 ft | 427 kts | 168° |
| 2026-05-06 19:53 | 44.94499 | 9.10727 | 34866 ft | 427 kts | 169° |
| 2026-05-06 19:54 | 44.88843 | 9.13313 | 34880 ft | 427 kts | 169° |
| 2026-05-06 19:54 | 44.83180 | 9.15894 | 34856 ft | 427 kts | 169° |
| 2026-05-06 19:55 | 44.77568 | 9.18450 | 34890 ft | 425 kts | 169° |
| 2026-05-06 19:55 | 44.71942 | 9.21012 | 34908 ft | 424 kts | 169° |
| 2026-05-06 19:56 | 44.66324 | 9.23559 | 34915 ft | 423 kts | 169° |
| 2026-05-06 19:56 | 44.60761 | 9.26076 | 34897 ft | 422 kts | 169° |
| 2026-05-06 19:57 | 44.55171 | 9.28610 | 34905 ft | 422 kts | 169° |
| 2026-05-06 19:57 | 44.49574 | 9.31145 | 34909 ft | 423 kts | 169° |
| 2026-05-06 19:58 | 44.43968 | 9.33668 | 34926 ft | 423 kts | 169° |
| 2026-05-06 19:58 | 44.38360 | 9.36184 | 34932 ft | 423 kts | 169° |
| 2026-05-06 19:59 | 44.32750 | 9.38703 | 34932 ft | 423 kts | 169° |
| 2026-05-06 19:59 | 44.27138 | 9.41213 | 34943 ft | 423 kts | 169° |
| 2026-05-06 20:00 | 44.21531 | 9.43713 | 34919 ft | 423 kts | 169° |
| 2026-05-06 20:00 | 44.15911 | 9.46225 | 34902 ft | 424 kts | 169° |
| 2026-05-06 20:01 | 44.10287 | 9.48732 | 34926 ft | 424 kts | 169° |
| 2026-05-06 20:01 | 44.04691 | 9.51222 | 34936 ft | 424 kts | 169° |
| 2026-05-06 20:02 | 43.99072 | 9.53712 | 34922 ft | 424 kts | 169° |
| 2026-05-06 20:02 | 43.93448 | 9.56191 | 34930 ft | 424 kts | 169° |
| 2026-05-06 20:03 | 43.87813 | 9.58675 | 34938 ft | 425 kts | 169° |
| 2026-05-06 20:03 | 43.82180 | 9.61166 | 34944 ft | 425 kts | 169° |
| 2026-05-06 20:04 | 43.76544 | 9.63644 | 34943 ft | 425 kts | 169° |
| 2026-05-06 20:04 | 43.70918 | 9.66110 | 34943 ft | 424 kts | 169° |
| 2026-05-06 20:05 | 43.65321 | 9.68567 | 34949 ft | 424 kts | 169° |
| 2026-05-06 20:05 | 43.59680 | 9.71023 | 34922 ft | 424 kts | 170° |
| 2026-05-06 20:06 | 43.54042 | 9.73476 | 34928 ft | 425 kts | 169° |
| 2026-05-06 20:06 | 43.48400 | 9.75941 | 34937 ft | 425 kts | 169° |
| 2026-05-06 20:07 | 43.42754 | 9.78002 | 34941 ft | 416 kts | 179° |
| 2026-05-06 20:07 | 43.37003 | 9.78987 | 34927 ft | 416 kts | 179° |
| 2026-05-06 20:08 | 43.31237 | 9.79959 | 34938 ft | 417 kts | 179° |
| 2026-05-06 20:08 | 43.25464 | 9.80925 | 34945 ft | 418 kts | 179° |
| 2026-05-06 20:09 | 43.19680 | 9.81889 | 34931 ft | 418 kts | 179° |
| 2026-05-06 20:09 | 43.13938 | 9.82853 | 34939 ft | 419 kts | 179° |
| 2026-05-06 20:10 | 43.08148 | 9.83819 | 34917 ft | 419 kts | 179° |
| 2026-05-06 20:10 | 43.02351 | 9.84779 | 34931 ft | 419 kts | 179° |
| 2026-05-06 20:11 | 42.96553 | 9.85741 | 34918 ft | 420 kts | 179° |
| 2026-05-06 20:11 | 42.91724 | 9.86547 | 34934 ft | 420 kts | 179° |
| 2026-05-06 20:12 | 42.85905 | 9.87513 | 34932 ft | 421 kts | 179° |
| 2026-05-06 20:12 | 42.80097 | 9.88467 | 34923 ft | 421 kts | 179° |
| 2026-05-06 20:13 | 42.74274 | 9.89426 | 34928 ft | 421 kts | 179° |
| 2026-05-06 20:13 | 42.68443 | 9.90378 | 34934 ft | 422 kts | 179° |
| 2026-05-06 20:14 | 42.62642 | 9.91330 | 34931 ft | 422 kts | 179° |
| 2026-05-06 20:14 | 42.56800 | 9.92289 | 34916 ft | 423 kts | 179° |
| 2026-05-06 20:15 | 42.50949 | 9.93246 | 34925 ft | 423 kts | 179° |
| 2026-05-06 20:15 | 42.45092 | 9.94201 | 34929 ft | 423 kts | 179° |
| 2026-05-06 20:16 | 42.39235 | 9.95161 | 34931 ft | 424 kts | 179° |
| 2026-05-06 20:16 | 42.33378 | 9.96118 | 34934 ft | 424 kts | 179° |
| 2026-05-06 20:17 | 42.27560 | 9.97062 | 34935 ft | 424 kts | 179° |
| 2026-05-06 20:17 | 42.24748 | 9.97518 | 34936 ft | 424 kts | 179° |
| 2026-05-06 20:18 | 42.19363 | 9.98406 | 34946 ft | 424 kts | 179° |
| 2026-05-06 20:18 | 42.13490 | 9.99349 | 34939 ft | 424 kts | 179° |
| 2026-05-06 20:19 | 42.07617 | 10.00288 | 34946 ft | 425 kts | 179° |
| 2026-05-06 20:19 | 42.01782 | 10.01229 | 34949 ft | 425 kts | 179° |
| 2026-05-06 20:20 | 41.95900 | 10.02171 | 34928 ft | 425 kts | 179° |
| 2026-05-06 20:20 | 41.90014 | 10.03116 | 34934 ft | 426 kts | 179° |
| 2026-05-06 20:21 | 41.84165 | 10.04059 | 34939 ft | 426 kts | 179° |
| 2026-05-06 20:21 | 41.78303 | 10.04191 | 34945 ft | 416 kts | 193° |
| 2026-05-06 20:22 | 41.72722 | 10.02348 | 34934 ft | 412 kts | 199° |
| 2026-05-06 20:22 | 41.67216 | 10.00332 | 34943 ft | 413 kts | 199° |
| 2026-05-06 20:23 | 41.61657 | 9.98315 | 34950 ft | 413 kts | 199° |
| 2026-05-06 20:23 | 41.56100 | 9.96311 | 34948 ft | 414 kts | 199° |
| 2026-05-06 20:24 | 41.50532 | 9.94292 | 34937 ft | 414 kts | 199° |
| 2026-05-06 20:24 | 41.45004 | 9.92284 | 34944 ft | 414 kts | 199° |
| 2026-05-06 20:25 | 41.39423 | 9.90272 | 34950 ft | 415 kts | 199° |
| 2026-05-06 20:25 | 41.33883 | 9.88268 | 34935 ft | 415 kts | 199° |
| 2026-05-06 20:26 | 41.28533 | 9.85576 | 34945 ft | 408 kts | 214° |
| 2026-05-06 20:26 | 41.24352 | 9.80602 | 34976 ft | 403 kts | 234° |
| 2026-05-06 20:27 | 41.21612 | 9.74173 | 34967 ft | 402 kts | 243° |
| 2026-05-06 20:27 | 41.19070 | 9.67545 | 34970 ft | 402 kts | 242° |
| 2026-05-06 20:28 | 41.16522 | 9.60914 | 34971 ft | 402 kts | 242° |
| 2026-05-06 20:28 | 41.13993 | 9.54333 | 34957 ft | 403 kts | 242° |
| 2026-05-06 20:29 | 41.11437 | 9.47706 | 34967 ft | 403 kts | 242° |
| 2026-05-06 20:29 | 41.08871 | 9.41073 | 34986 ft | 403 kts | 242° |
| 2026-05-06 20:30 | 41.05035 | 9.31180 | 34969 ft | 403 kts | 242° |
| 2026-05-06 20:31 | 41.02461 | 9.24564 | 34967 ft | 404 kts | 242° |
| 2026-05-06 20:31 | 40.99897 | 9.17986 | 34767 ft | 404 kts | 242° |
| 2026-05-06 20:31 | 40.98606 | 9.14679 | 34526 ft | 405 kts | 242° |
| 2026-05-06 20:32 | 40.97308 | 9.11360 | 34264 ft | 405 kts | 242° |
| 2026-05-06 20:32 | 40.96011 | 9.08047 | 34043 ft | 406 kts | 242° |
| 2026-05-06 20:32 | 40.94710 | 9.04721 | 33745 ft | 407 kts | 242° |
| 2026-05-06 20:32 | 40.93410 | 9.01392 | 33304 ft | 407 kts | 242° |
| 2026-05-06 20:33 | 40.92123 | 8.98104 | 32879 ft | 408 kts | 242° |
| 2026-05-06 20:33 | 40.90815 | 8.94773 | 32463 ft | 408 kts | 242° |
| 2026-05-06 20:33 | 40.89501 | 8.91435 | 32050 ft | 409 kts | 242° |
| 2026-05-06 20:33 | 40.88184 | 8.88095 | 31641 ft | 410 kts | 242° |
| 2026-05-06 20:34 | 40.86862 | 8.84742 | 31238 ft | 411 kts | 242° |
| 2026-05-06 20:34 | 40.85538 | 8.81388 | 30838 ft | 411 kts | 242° |
| 2026-05-06 20:34 | 40.84230 | 8.78076 | 30448 ft | 412 kts | 242° |
| 2026-05-06 20:34 | 40.82898 | 8.74714 | 30066 ft | 413 kts | 242° |
| 2026-05-06 20:35 | 40.81557 | 8.71341 | 29638 ft | 414 kts | 242° |
| 2026-05-06 20:35 | 40.80215 | 8.67963 | 29165 ft | 415 kts | 242° |
| 2026-05-06 20:35 | 40.78871 | 8.64583 | 28731 ft | 416 kts | 242° |
| 2026-05-06 20:35 | 40.77529 | 8.61200 | 28294 ft | 417 kts | 242° |
| 2026-05-06 20:36 | 40.76177 | 8.57793 | 27877 ft | 419 kts | 242° |
| 2026-05-06 20:36 | 40.74825 | 8.54384 | 27451 ft | 420 kts | 242° |
| 2026-05-06 20:36 | 40.73482 | 8.51000 | 27029 ft | 422 kts | 242° |
| 2026-05-06 20:36 | 40.72115 | 8.47565 | 26597 ft | 423 kts | 242° |
| 2026-05-06 20:37 | 40.70737 | 8.44115 | 26171 ft | 425 kts | 242° |
| 2026-05-06 20:37 | 40.69351 | 8.40660 | 25758 ft | 427 kts | 242° |
| 2026-05-06 20:37 | 40.67847 | 8.37280 | 25338 ft | 428 kts | 234° |
| 2026-05-06 20:37 | 40.65795 | 8.34425 | 24932 ft | 432 kts | 221° |
| 2026-05-06 20:38 | 40.63259 | 8.32352 | 24552 ft | 439 kts | 207° |
| 2026-05-06 20:38 | 40.60309 | 8.31195 | 24138 ft | 448 kts | 192° |
| 2026-05-06 20:38 | 40.57160 | 8.31116 | 23746 ft | 459 kts | 178° |
| 2026-05-06 20:38 | 40.54037 | 8.32186 | 23316 ft | 469 kts | 162° |
| 2026-05-06 20:39 | 40.51169 | 8.34306 | 22853 ft | 475 kts | 152° |
| 2026-05-06 20:39 | 40.48397 | 8.36666 | 22380 ft | 473 kts | 152° |
| 2026-05-06 20:39 | 40.45682 | 8.38991 | 21936 ft | 470 kts | 152° |
| 2026-05-06 20:39 | 40.42949 | 8.41334 | 21489 ft | 467 kts | 152° |
| 2026-05-06 20:40 | 40.40230 | 8.43657 | 21055 ft | 464 kts | 152° |
| 2026-05-06 20:40 | 40.37531 | 8.45955 | 20624 ft | 461 kts | 152° |
| 2026-05-06 20:40 | 40.34843 | 8.48238 | 20207 ft | 458 kts | 151° |
| 2026-05-06 20:40 | 40.32204 | 8.50476 | 19803 ft | 455 kts | 151° |
| 2026-05-06 20:41 | 40.29551 | 8.52721 | 19391 ft | 452 kts | 151° |
| 2026-05-06 20:41 | 40.26912 | 8.54948 | 18988 ft | 449 kts | 151° |
| 2026-05-06 20:41 | 40.24291 | 8.57156 | 18589 ft | 446 kts | 151° |
| 2026-05-06 20:41 | 40.21679 | 8.59356 | 18181 ft | 444 kts | 151° |
| 2026-05-06 20:42 | 40.19093 | 8.61535 | 17728 ft | 440 kts | 150° |
| 2026-05-06 20:42 | 40.16525 | 8.63698 | 17266 ft | 437 kts | 150° |
| 2026-05-06 20:42 | 40.13975 | 8.65845 | 16830 ft | 435 kts | 150° |
| 2026-05-06 20:42 | 40.11465 | 8.67956 | 16399 ft | 432 kts | 150° |
| 2026-05-06 20:43 | 40.08943 | 8.70075 | 15968 ft | 429 kts | 150° |
| 2026-05-06 20:43 | 40.06437 | 8.72177 | 15535 ft | 426 kts | 150° |
| 2026-05-06 20:43 | 40.03944 | 8.74266 | 15115 ft | 423 kts | 149° |
| 2026-05-06 20:43 | 40.01465 | 8.76343 | 14709 ft | 421 kts | 149° |
| 2026-05-06 20:44 | 39.99006 | 8.78399 | 14318 ft | 418 kts | 149° |
| 2026-05-06 20:44 | 39.96594 | 8.80416 | 13912 ft | 415 kts | 149° |
| 2026-05-06 20:44 | 39.94165 | 8.82448 | 13472 ft | 413 kts | 149° |
| 2026-05-06 20:44 | 39.91754 | 8.84462 | 13058 ft | 410 kts | 149° |
| 2026-05-06 20:45 | 39.89353 | 8.86464 | 12686 ft | 408 kts | 149° |
| 2026-05-06 20:45 | 39.86964 | 8.88457 | 12328 ft | 405 kts | 149° |
| 2026-05-06 20:45 | 39.84622 | 8.90406 | 11975 ft | 404 kts | 149° |
| 2026-05-06 20:45 | 39.82259 | 8.92371 | 11619 ft | 402 kts | 149° |
| 2026-05-06 20:46 | 39.79907 | 8.94330 | 11275 ft | 400 kts | 148° |
| 2026-05-06 20:46 | 39.77596 | 8.96254 | 10924 ft | 387 kts | 148° |
| 2026-05-06 20:46 | 39.75357 | 8.98114 | 10583 ft | 375 kts | 148° |
| 2026-05-06 20:46 | 39.73191 | 8.99909 | 10247 ft | 364 kts | 148° |
| 2026-05-06 20:47 | 39.71085 | 9.01656 | 9917 ft | 353 kts | 148° |
| 2026-05-06 20:47 | 39.69060 | 9.03335 | 9547 ft | 335 kts | 148° |
| 2026-05-06 20:47 | 39.67148 | 9.04915 | 9172 ft | 315 kts | 148° |
| 2026-05-06 20:47 | 39.65364 | 9.06385 | 8817 ft | 299 kts | 148° |
| 2026-05-06 20:48 | 39.63650 | 9.07797 | 8641 ft | 289 kts | 148° |
| 2026-05-06 20:48 | 39.61960 | 9.09192 | 8509 ft | 287 kts | 148° |
| 2026-05-06 20:48 | 39.60282 | 9.10579 | 8382 ft | 285 kts | 148° |
| 2026-05-06 20:48 | 39.58611 | 9.11959 | 8256 ft | 284 kts | 148° |
| 2026-05-06 20:49 | 39.56942 | 9.13338 | 8128 ft | 284 kts | 148° |
| 2026-05-06 20:49 | 39.55276 | 9.14713 | 7999 ft | 283 kts | 148° |
| 2026-05-06 20:49 | 39.53635 | 9.16063 | 7822 ft | 282 kts | 148° |
| 2026-05-06 20:49 | 39.51978 | 9.17428 | 7653 ft | 281 kts | 148° |
| 2026-05-06 20:50 | 39.50328 | 9.18788 | 7477 ft | 280 kts | 148° |
| 2026-05-06 20:50 | 39.48679 | 9.20145 | 7308 ft | 280 kts | 148° |
| 2026-05-06 20:50 | 39.47038 | 9.21492 | 7136 ft | 279 kts | 148° |
| 2026-05-06 20:50 | 39.45400 | 9.22834 | 6966 ft | 278 kts | 148° |
| 2026-05-06 20:51 | 39.43765 | 9.24174 | 6801 ft | 277 kts | 148° |
| 2026-05-06 20:51 | 39.42137 | 9.25508 | 6632 ft | 276 kts | 148° |
| 2026-05-06 20:51 | 39.40531 | 9.26821 | 6467 ft | 276 kts | 148° |
| 2026-05-06 20:51 | 39.38911 | 9.28150 | 6290 ft | 275 kts | 148° |
| 2026-05-06 20:52 | 39.37296 | 9.29474 | 6093 ft | 274 kts | 148° |
| 2026-05-06 20:52 | 39.35683 | 9.30795 | 5914 ft | 274 kts | 148° |
| 2026-05-06 20:52 | 39.34072 | 9.32113 | 5736 ft | 273 kts | 148° |
| 2026-05-06 20:52 | 39.32464 | 9.33426 | 5563 ft | 273 kts | 148° |
| 2026-05-06 20:53 | 39.30885 | 9.34718 | 5386 ft | 272 kts | 148° |
| 2026-05-06 20:53 | 39.29285 | 9.36024 | 5214 ft | 272 kts | 148° |
| 2026-05-06 20:53 | 39.27687 | 9.37328 | 5040 ft | 271 kts | 148° |
| 2026-05-06 20:53 | 39.26091 | 9.38632 | 4878 ft | 271 kts | 148° |
| 2026-05-06 20:54 | 39.24501 | 9.39932 | 4700 ft | 270 kts | 148° |
| 2026-05-06 20:54 | 39.22912 | 9.41230 | 4538 ft | 269 kts | 148° |
| 2026-05-06 20:54 | 39.21328 | 9.42516 | 4375 ft | 268 kts | 150° |
| 2026-05-06 20:54 | 39.19645 | 9.43330 | 4243 ft | 257 kts | 172° |
| 2026-05-06 20:55 | 39.17883 | 9.43284 | 4112 ft | 250 kts | 193° |
| 2026-05-06 20:55 | 39.16320 | 9.42452 | 3984 ft | 237 kts | 214° |
| 2026-05-06 20:55 | 39.15129 | 9.41067 | 3855 ft | 226 kts | 228° |
| 2026-05-06 20:55 | 39.14099 | 9.39595 | 3730 ft | 215 kts | 227° |
| 2026-05-06 20:56 | 39.13116 | 9.38199 | 3606 ft | 211 kts | 227° |
| 2026-05-06 20:56 | 39.12124 | 9.36796 | 3475 ft | 211 kts | 227° |
| 2026-05-06 20:56 | 39.11140 | 9.35408 | 3494 ft | 209 kts | 226° |
| 2026-05-06 20:56 | 39.10153 | 9.34013 | 3522 ft | 211 kts | 227° |
| 2026-05-06 20:57 | 39.09162 | 9.32610 | 3525 ft | 211 kts | 227° |
| 2026-05-06 20:57 | 39.08209 | 9.31171 | 3518 ft | 211 kts | 236° |
| 2026-05-06 20:57 | 39.07622 | 9.29466 | 3503 ft | 213 kts | 256° |
| 2026-05-06 20:57 | 39.07518 | 9.27573 | 3375 ft | 213 kts | 276° |
| 2026-05-06 20:58 | 39.07945 | 9.25748 | 3253 ft | 214 kts | 298° |
| 2026-05-06 20:58 | 39.08861 | 9.24236 | 3132 ft | 215 kts | 318° |
| 2026-05-06 20:58 | 39.09970 | 9.22961 | 3034 ft | 210 kts | 318° |
| 2026-05-06 20:58 | 39.11035 | 9.21737 | 3012 ft | 207 kts | 318° |
| 2026-05-06 20:59 | 39.12108 | 9.20500 | 3015 ft | 206 kts | 318° |
| 2026-05-06 20:59 | 39.13176 | 9.19270 | 2865 ft | 206 kts | 318° |
| 2026-05-06 20:59 | 39.14220 | 9.18066 | 2654 ft | 195 kts | 318° |
| 2026-05-06 20:59 | 39.15202 | 9.16932 | 2375 ft | 184 kts | 318° |
| 2026-05-06 21:00 | 39.16127 | 9.15865 | 2125 ft | 172 kts | 319° |
| 2026-05-06 21:00 | 39.16993 | 9.14863 | 1906 ft | 162 kts | 319° |
| 2026-05-06 21:00 | 39.17807 | 9.13923 | 1712 ft | 153 kts | 319° |
| 2026-05-06 21:00 | 39.18591 | 9.13018 | 1496 ft | 150 kts | 320° |
| 2026-05-06 21:01 | 39.19365 | 9.12123 | 1296 ft | 148 kts | 320° |
| 2026-05-06 21:01 | 39.20130 | 9.11239 | 1097 ft | 147 kts | 319° |
| 2026-05-06 21:01 | 39.20894 | 9.10355 | 930 ft | 147 kts | 319° |
| 2026-05-06 21:01 | 39.21645 | 9.09486 | 730 ft | 147 kts | 319° |
| 2026-05-06 21:02 | 39.22408 | 9.08603 | 540 ft | 146 kts | 317° |
| 2026-05-06 21:02 | 39.23159 | 9.07734 | 343 ft | 143 kts | 317° |
| 2026-05-06 21:02 | 39.23895 | 9.06876 | 158 ft | 142 kts | 316° |
| 2026-05-06 21:02 | 39.24629 | 9.06035 | 25 ft | 134 kts | 317° |
| 2026-05-06 21:03 | 39.25221 | 9.05343 | 18 ft | 91 kts | 317° |
| 2026-05-06 21:03 | 39.25563 | 9.04946 | 20 ft | 42 kts | 318° |
| 2026-05-06 21:03 | 39.25702 | 9.04842 | 21 ft | 19 kts | 1° |
| 2026-05-06 21:03 | 39.25754 | 9.04867 | 21 ft | 5 kts | 28° |
| 2026-05-06 21:04 | 39.25789 | 9.04926 | 20 ft | 14 kts | 71° |
| 2026-05-06 21:04 | 39.25728 | 9.05038 | 20 ft | 17 kts | 139° |
| 2026-05-06 21:04 | 39.25667 | 9.05107 | 20 ft | 18 kts | 139° |
| 2026-05-06 21:04 | 39.25569 | 9.05217 | 20 ft | 19 kts | 139° |
| 2026-05-06 21:05 | 39.25477 | 9.05320 | 19 ft | 21 kts | 139° |
| 2026-05-06 21:05 | 39.25366 | 9.05447 | 19 ft | 22 kts | 137° |
| 2026-05-06 21:05 | 39.25250 | 9.05583 | 19 ft | 23 kts | 138° |
| 2026-05-06 21:05 | 39.25131 | 9.05722 | 19 ft | 15 kts | 137° |
| 2026-05-06 21:06 | 39.25124 | 9.05770 | 19 ft | 5 kts | 70° |
| 2026-05-06 21:06 | 39.25138 | 9.05805 | 19 ft | 6 kts | 60° |
| 2026-05-06 21:06 | 39.25147 | 9.05889 | 18 ft | 9 kts | 139° |
| 2026-05-06 21:06 | 39.25122 | 9.05937 | 18 ft | 4 kts | 94° |
| 2026-05-06 21:07 | 39.25134 | 9.05963 | 18 ft | 3 kts | 55° |
| 2026-05-06 21:07 | 39.25161 | 9.06005 | 18 ft | 10 kts | 49° |
| 2026-05-06 21:07 | 39.25212 | 9.06029 | 18 ft | 8 kts | 344° |
| 2026-05-06 21:07 | 39.25251 | 9.06001 | 20 ft | 4 kts | 319° |
| 2026-05-06 21:08 | 39.25260 | 9.05992 | 18 ft | 0 kts | 317° |